createdAt,value
2022-08-05T00:02:07.886Z,22.66
2022-08-05T00:06:01.740Z,22.65
2022-08-05T00:08:36.668Z,22.57
2022-08-05T00:11:49.228Z,22.42
2022-08-05T00:14:57.791Z,22.49
2022-08-05T00:17:59.958Z,22.64
2022-08-05T00:21:06.528Z,22.41
2022-08-05T00:24:10.965Z,22.24
2022-08-05T00:27:14.061Z,22.17
2022-08-05T00:30:19.071Z,22.25
2022-08-05T00:34:56.664Z,22.27
2022-08-05T00:37:10.663Z,22.18
2022-08-05T00:40:17.896Z,22.19
2022-08-05T00:43:41.634Z,22.03
2022-08-05T00:46:54.071Z,21.94
2022-08-05T00:50:04.806Z,22.02
2022-08-05T00:53:16.014Z,21.90
2022-08-05T00:56:30.129Z,21.77
2022-08-05T00:59:44.142Z,21.75
2022-08-05T01:02:46.685Z,21.64
2022-08-05T01:05:54.629Z,21.37
2022-08-05T01:08:57.368Z,21.31
2022-08-05T01:12:09.117Z,21.19
2022-08-05T01:15:34.978Z,20.92
2022-08-05T01:18:38.628Z,20.93
2022-08-05T01:22:15.605Z,20.79
2022-08-05T01:25:40.220Z,20.69
2022-08-05T01:28:43.621Z,20.66
2022-08-05T01:31:48.773Z,20.67
2022-08-05T01:34:57.519Z,20.60
2022-08-05T01:38:02.301Z,20.60
2022-08-05T01:41:07.029Z,20.50
2022-08-05T01:44:11.173Z,20.36
2022-08-05T01:47:15.522Z,20.27
2022-08-05T01:50:28.764Z,20.36
2022-08-05T01:53:55.099Z,20.33
2022-08-05T01:58:11.649Z,20.14
2022-08-05T02:00:18.896Z,20.05
2022-08-05T02:03:34.488Z,20.08
2022-08-05T02:06:38.821Z,20.00
2022-08-05T02:09:41.486Z,19.99
2022-08-05T02:12:50.978Z,19.92
2022-08-05T02:16:29.184Z,19.93
2022-08-05T02:19:35.107Z,19.99
2022-08-05T02:22:43.751Z,19.92
2022-08-05T02:25:49.111Z,19.94
2022-08-05T02:28:53.552Z,19.94
2022-08-05T02:31:59.484Z,19.95
2022-08-05T02:35:14.174Z,19.80
2022-08-05T02:38:19.765Z,19.79
2022-08-05T02:41:28.946Z,19.83
2022-08-05T02:44:46.408Z,19.87
2022-08-05T02:48:06.578Z,19.94
2022-08-05T02:51:12.179Z,19.71
2022-08-05T02:54:34.856Z,19.88
2022-08-05T02:58:20.309Z,19.75
2022-08-05T03:01:02.907Z,19.63
2022-08-05T03:04:14.052Z,19.66
2022-08-05T03:07:24.732Z,19.61
2022-08-05T03:11:53.611Z,19.64
2022-08-05T03:14:08.065Z,19.73
2022-08-05T03:17:10.377Z,19.52
2022-08-05T03:20:13.572Z,19.36
2022-08-05T03:23:16.199Z,19.18
2022-08-05T03:26:31.813Z,19.18
2022-08-05T03:29:45.107Z,19.10
2022-08-05T03:32:57.467Z,19.18
2022-08-05T03:36:00.037Z,19.12
2022-08-05T03:39:08.485Z,19.11
2022-08-05T03:42:22.668Z,19.19
2022-08-05T03:45:29.764Z,19.02
2022-08-05T03:48:51.955Z,19.01
2022-08-05T03:52:38.911Z,19.02
2022-08-05T03:56:04.087Z,19.12
2022-08-05T03:58:51.266Z,19.16
2022-08-05T04:01:59.017Z,19.30
2022-08-05T04:05:01.896Z,19.72
2022-08-05T04:08:30.015Z,20.33
2022-08-05T04:11:47.659Z,21.22
2022-08-05T04:14:52.266Z,22.15
2022-08-05T04:17:56.581Z,23.07
2022-08-05T04:20:59.737Z,23.33
2022-08-05T04:24:06.412Z,23.85
2022-08-05T04:27:09.333Z,23.99
2022-08-05T04:30:11.837Z,24.54
2022-08-05T04:33:14.905Z,24.54
2022-08-05T04:36:49.506Z,24.39
2022-08-05T04:39:40.108Z,25.14
2022-08-05T04:42:42.400Z,25.61
2022-08-05T04:45:48.323Z,25.93
2022-08-05T04:48:51.624Z,26.15
2022-08-05T04:52:00.218Z,26.54
2022-08-05T04:55:05.327Z,26.79
2022-08-05T04:58:21.647Z,26.91
2022-08-05T05:02:06.090Z,27.32
2022-08-05T05:04:49.744Z,26.83
2022-08-05T05:07:56.499Z,27.80
2022-08-05T05:11:03.318Z,27.19
2022-08-05T05:14:06.426Z,28.10
2022-08-05T05:17:10.899Z,28.52
2022-08-05T05:20:13.902Z,28.17
2022-08-05T05:23:19.938Z,27.96
2022-08-05T05:26:28.727Z,27.61
2022-08-05T05:30:03.460Z,27.71
2022-08-05T05:33:00.791Z,27.57
2022-08-05T05:36:05.909Z,27.63
2022-08-05T05:39:10.923Z,27.38
2022-08-05T05:42:13.745Z,27.13
2022-08-05T05:45:16.825Z,27.37
2022-08-05T05:48:19.622Z,27.42
2022-08-05T05:51:29.974Z,27.61
2022-08-05T05:54:52.130Z,27.62
2022-08-05T05:57:54.288Z,27.38
2022-08-05T06:00:56.495Z,27.99
2022-08-05T06:04:01.546Z,27.97
2022-08-05T06:07:05.792Z,28.13
2022-08-05T06:10:10.546Z,28.29
2022-08-05T06:13:12.910Z,28.25
2022-08-05T06:16:31.635Z,28.46
2022-08-05T06:19:35.781Z,28.68
2022-08-05T06:22:38.108Z,29.09
2022-08-05T06:26:12.976Z,29.12
2022-08-05T06:29:23.585Z,29.17
2022-08-05T06:32:28.919Z,29.37
2022-08-05T06:36:06.954Z,29.60
2022-08-05T06:38:54.842Z,29.82
2022-08-05T06:42:04.356Z,30.04
2022-08-05T06:45:08.603Z,30.37
2022-08-05T06:48:54.549Z,30.65
2022-08-05T06:51:33.613Z,30.58
2022-08-05T06:54:35.957Z,30.86
2022-08-05T06:58:03.493Z,31.08
2022-08-05T07:01:01.895Z,31.08
2022-08-05T07:04:04.429Z,31.22
2022-08-05T07:07:07.986Z,31.35
2022-08-05T07:10:10.776Z,31.51
2022-08-05T07:13:56.849Z,31.62
2022-08-05T07:17:59.256Z,31.17
2022-08-05T07:20:33.865Z,31.60
2022-08-05T07:23:40.590Z,31.65
2022-08-05T07:26:52.493Z,31.93
2022-08-05T07:30:22.945Z,31.87
2022-08-05T07:33:35.081Z,31.61
2022-08-05T07:36:39.728Z,32.27
2022-08-05T07:40:26.810Z,32.42
2022-08-05T07:43:14.660Z,32.32
2022-08-05T07:46:25.351Z,32.49
2022-08-05T07:49:28.169Z,32.58
2022-08-05T07:52:30.525Z,32.27
2022-08-05T07:55:44.633Z,32.55
2022-08-05T07:58:59.158Z,32.76
2022-08-05T08:02:03.112Z,32.59
2022-08-05T08:05:05.870Z,32.77
2022-08-05T08:08:12.776Z,32.93
2022-08-05T08:11:17.671Z,32.95
2022-08-05T08:14:29.710Z,32.95
2022-08-05T08:17:33.019Z,33.06
2022-08-05T08:21:00.472Z,33.33
2022-08-05T08:24:04.984Z,33.41
2022-08-05T08:27:08.537Z,33.45
2022-08-05T08:30:29.433Z,33.60
2022-08-05T08:33:38.092Z,33.52
2022-08-05T08:36:46.360Z,33.63
2022-08-05T08:39:54.856Z,33.82
2022-08-05T08:42:57.542Z,33.87
2022-08-05T08:46:20.093Z,33.86
2022-08-05T08:50:29.755Z,33.87
2022-08-05T08:52:53.025Z,34.01
2022-08-05T08:56:04.478Z,34.10
2022-08-05T08:59:14.688Z,34.20
2022-08-05T09:02:24.199Z,34.13
2022-08-05T09:05:38.767Z,33.88
2022-08-05T09:08:51.530Z,34.28
2022-08-05T09:11:55.791Z,34.38
2022-08-05T09:15:06.374Z,34.84
2022-08-05T09:18:09.763Z,34.53
2022-08-05T09:21:21.241Z,34.24
2022-08-05T09:24:37.999Z,34.28
2022-08-05T09:28:04.744Z,33.98
2022-08-05T09:31:23.462Z,34.20
2022-08-05T09:34:53.623Z,34.57
2022-08-05T09:38:12.871Z,34.34
2022-08-05T09:41:20.100Z,34.74
2022-08-05T09:44:40.637Z,34.82
2022-08-05T09:47:54.980Z,35.12
2022-08-05T09:51:14.874Z,35.10
2022-08-05T09:54:31.133Z,34.99
2022-08-05T09:57:45.233Z,34.98
2022-08-05T10:00:59.944Z,34.95
2022-08-05T10:04:10.446Z,35.30
2022-08-05T10:07:19.884Z,35.43
2022-08-05T10:10:36.939Z,35.34
2022-08-05T10:13:44.096Z,34.98
2022-08-05T10:16:52.831Z,35.30
2022-08-05T10:20:03.778Z,35.37
2022-08-05T10:23:34.140Z,35.51
2022-08-05T10:26:49.115Z,35.09
2022-08-05T10:30:41.556Z,34.99
2022-08-05T10:33:17.700Z,35.46
2022-08-05T10:36:23.462Z,35.50
2022-08-05T10:40:03.280Z,35.50
2022-08-05T10:42:58.926Z,35.65
2022-08-05T10:46:06.199Z,35.70
2022-08-05T10:49:10.407Z,35.63
2022-08-05T10:52:53.939Z,35.36
2022-08-05T10:56:21.047Z,35.09
2022-08-05T11:00:03.060Z,35.16
2022-08-05T11:03:23.162Z,35.30
2022-08-05T11:06:30.657Z,35.18
2022-08-05T11:09:45.627Z,34.74
2022-08-05T11:12:50.415Z,33.83
2022-08-05T11:16:23.380Z,33.57
2022-08-05T11:20:16.813Z,33.31
2022-08-05T11:24:02.356Z,33.89
2022-08-05T11:27:50.124Z,34.66
2022-08-05T11:31:06.442Z,35.13
2022-08-05T11:34:09.067Z,35.41
2022-08-05T11:38:29.936Z,35.50
2022-08-05T11:41:35.103Z,35.57
2022-08-05T11:44:40.517Z,35.38
2022-08-05T11:47:55.732Z,35.18
2022-08-05T11:50:58.249Z,35.56
2022-08-05T11:54:01.831Z,35.89
2022-08-05T11:57:07.893Z,35.75
2022-08-05T12:00:29.192Z,35.62
2022-08-05T12:03:56.030Z,35.60
2022-08-05T12:07:01.842Z,35.81
2022-08-05T12:10:09.585Z,35.82
2022-08-05T12:13:18.853Z,36.16
2022-08-05T12:16:39.967Z,35.78
2022-08-05T12:20:16.745Z,34.93
2022-08-05T12:23:12.684Z,34.83
2022-08-05T12:26:15.382Z,35.17
2022-08-05T12:29:22.859Z,35.45
2022-08-05T12:32:26.046Z,35.24
2022-08-05T12:35:36.999Z,34.64
2022-08-05T12:38:42.360Z,35.13
2022-08-05T12:41:45.881Z,35.26
2022-08-05T12:44:48.645Z,35.40
2022-08-05T12:48:16.947Z,35.80
2022-08-05T12:52:10.625Z,36.02
2022-08-05T12:54:37.035Z,35.78
2022-08-05T12:58:38.768Z,36.12
2022-08-05T13:02:00.844Z,35.90
2022-08-05T13:04:28.413Z,36.02
2022-08-05T13:07:57.453Z,36.05
2022-08-05T13:11:02.222Z,35.32
2022-08-05T13:14:10.610Z,35.15
2022-08-05T13:17:32.021Z,34.59
2022-08-05T13:20:43.910Z,34.45
2022-08-05T13:23:52.214Z,34.24
2022-08-05T13:26:54.554Z,34.23
2022-08-05T13:30:31.662Z,34.72
2022-08-05T13:34:21.627Z,35.22
2022-08-05T13:36:42.510Z,35.53
2022-08-05T13:40:15.116Z,35.59
2022-08-05T13:43:12.112Z,35.73
2022-08-05T13:46:16.333Z,35.20
2022-08-05T13:49:35.340Z,34.98
2022-08-05T13:52:37.943Z,35.37
2022-08-05T13:55:40.778Z,35.42
2022-08-05T13:58:44.399Z,35.11
2022-08-05T14:01:59.560Z,34.67
2022-08-05T14:05:11.906Z,34.76
2022-08-05T14:08:20.763Z,35.06
2022-08-05T14:11:31.324Z,35.42
2022-08-05T14:14:33.892Z,35.49
2022-08-05T14:17:36.782Z,35.50
2022-08-05T14:20:39.019Z,35.47
2022-08-05T14:23:41.227Z,35.68
2022-08-05T14:26:56.605Z,35.71
2022-08-05T14:30:06.829Z,35.58
2022-08-05T14:33:24.146Z,35.38
2022-08-05T14:36:26.562Z,35.31
2022-08-05T14:39:28.831Z,35.47
2022-08-05T14:42:32.071Z,35.45
2022-08-05T14:45:34.719Z,34.46
2022-08-05T14:48:36.900Z,34.72
2022-08-05T14:51:42.403Z,34.68
2022-08-05T14:54:52.883Z,34.55
2022-08-05T14:57:56.419Z,34.57
2022-08-05T15:01:00.425Z,34.90
2022-08-05T15:04:04.013Z,34.93
2022-08-05T15:07:06.741Z,34.93
2022-08-05T15:10:09.882Z,34.90
2022-08-05T15:13:12.348Z,34.80
2022-08-05T15:16:14.547Z,34.95
2022-08-05T15:19:23.708Z,34.98
2022-08-05T15:22:27.411Z,34.81
2022-08-05T15:25:40.968Z,34.81
2022-08-05T15:28:52.838Z,34.80
2022-08-05T15:31:55.379Z,34.49
2022-08-05T15:35:04.008Z,34.61
2022-08-05T15:38:36.082Z,34.70
2022-08-05T15:41:56.230Z,34.71
2022-08-05T15:44:56.496Z,34.83
2022-08-05T15:47:58.761Z,34.74
2022-08-05T15:51:05.727Z,34.70
2022-08-05T15:54:08.515Z,34.28
2022-08-05T15:57:11.310Z,34.17
2022-08-05T16:00:16.980Z,34.24
2022-08-05T16:03:28.779Z,34.20
2022-08-05T16:06:31.018Z,34.19
2022-08-05T16:09:33.816Z,34.19
2022-08-05T16:12:36.183Z,33.95
2022-08-05T16:15:39.776Z,33.73
2022-08-05T16:18:52.542Z,33.85
2022-08-05T16:22:00.325Z,33.83
2022-08-05T16:25:09.441Z,33.75
2022-08-05T16:28:13.623Z,33.69
2022-08-05T16:31:17.948Z,33.71
2022-08-05T16:34:22.154Z,33.73
2022-08-05T16:38:15.192Z,33.59
2022-08-05T16:40:51.789Z,33.60
2022-08-05T16:43:58.109Z,33.58
2022-08-05T16:47:00.592Z,33.47
2022-08-05T16:50:04.024Z,33.38
2022-08-05T16:53:12.048Z,33.36
2022-08-05T16:56:25.163Z,33.33
2022-08-05T16:59:27.714Z,33.19
2022-08-05T17:02:32.808Z,33.17
2022-08-05T17:05:37.642Z,33.19
2022-08-05T17:08:52.217Z,33.11
2022-08-05T17:11:59.290Z,33.01
2022-08-05T17:15:02.892Z,32.87
2022-08-05T17:18:05.193Z,32.70
2022-08-05T17:21:16.414Z,32.47
2022-08-05T17:24:35.118Z,32.38
2022-08-05T17:27:40.955Z,32.23
2022-08-05T17:30:51.993Z,32.09
2022-08-05T17:33:56.014Z,31.86
2022-08-05T17:37:00.588Z,31.68
2022-08-05T17:40:05.092Z,31.39
2022-08-05T17:43:12.609Z,31.15
2022-08-05T17:46:14.812Z,30.93
2022-08-05T17:49:17.339Z,30.68
2022-08-05T17:52:20.372Z,30.58
2022-08-05T17:55:34.114Z,30.42
2022-08-05T17:58:39.687Z,30.04
2022-08-05T18:01:49.204Z,29.59
2022-08-05T18:04:53.639Z,29.50
2022-08-05T18:07:57.410Z,29.58
2022-08-05T18:11:00.084Z,29.31
2022-08-05T18:14:04.382Z,29.26
2022-08-05T18:18:01.260Z,28.84
2022-08-05T18:20:32.267Z,28.48
2022-08-05T18:23:37.952Z,28.25
2022-08-05T18:26:48.198Z,28.13
2022-08-05T18:29:54.499Z,28.20
2022-08-05T18:33:00.971Z,28.04
2022-08-05T18:36:11.896Z,27.82
2022-08-05T18:39:42.448Z,27.55
2022-08-05T18:42:40.899Z,27.41
2022-08-05T18:45:44.180Z,27.30
2022-08-05T18:48:52.050Z,27.24
2022-08-05T18:52:13.424Z,27.33
2022-08-05T18:55:15.977Z,27.23
2022-08-05T18:58:18.759Z,27.02
2022-08-05T19:01:33.377Z,26.89
2022-08-05T19:05:01.382Z,26.83
2022-08-05T19:08:12.192Z,26.75
2022-08-05T19:11:28.100Z,26.62
2022-08-05T19:15:02.417Z,26.48
2022-08-05T19:18:09.400Z,26.33
2022-08-05T19:21:13.014Z,26.21
2022-08-05T19:24:15.207Z,26.31
2022-08-05T19:27:17.428Z,26.15
2022-08-05T19:30:21.916Z,26.02
2022-08-05T19:33:35.749Z,26.05
2022-08-05T19:36:38.937Z,26.03
2022-08-05T19:39:45.986Z,26.06
2022-08-05T19:43:00.965Z,25.94
2022-08-05T19:46:16.878Z,25.81
2022-08-05T19:49:29.461Z,25.74
2022-08-05T19:52:32.402Z,25.79
2022-08-05T19:56:12.580Z,25.67
2022-08-05T19:58:57.061Z,25.62
2022-08-05T20:02:01.429Z,25.51
2022-08-05T20:05:09.682Z,25.43
2022-08-05T20:08:19.932Z,25.33
2022-08-05T20:11:24.052Z,25.13
2022-08-05T20:14:27.359Z,25.19
2022-08-05T20:17:29.585Z,25.18
2022-08-05T20:20:37.353Z,25.24
2022-08-05T20:23:50.223Z,25.25
2022-08-05T20:26:53.960Z,25.13
2022-08-05T20:29:58.935Z,25.03
2022-08-05T20:33:01.333Z,25.09
2022-08-05T20:36:04.274Z,25.16
2022-08-05T20:39:06.534Z,25.41
2022-08-05T20:42:15.390Z,25.70
2022-08-05T20:45:24.010Z,26.22
2022-08-05T20:48:46.249Z,26.43
2022-08-05T20:51:54.868Z,26.69
2022-08-05T20:55:54.270Z,26.81
2022-08-05T20:58:19.846Z,26.97
2022-08-05T21:01:26.104Z,27.08
2022-08-05T21:04:39.806Z,27.15
2022-08-05T21:07:50.593Z,27.22
2022-08-05T21:10:54.300Z,27.27
2022-08-05T21:14:00.692Z,27.22
2022-08-05T21:17:04.961Z,27.02
2022-08-05T21:20:10.147Z,26.64
2022-08-05T21:23:12.922Z,26.36
2022-08-05T21:26:16.449Z,26.08
2022-08-05T21:29:19.921Z,25.87
2022-08-05T21:32:28.887Z,25.71
2022-08-05T21:35:55.353Z,25.57
2022-08-05T21:38:54.087Z,25.44
2022-08-05T21:42:01.902Z,25.35
2022-08-05T21:45:04.948Z,25.29
2022-08-05T21:48:08.229Z,25.19
2022-08-05T21:52:15.385Z,25.11
2022-08-05T21:54:32.888Z,25.03
2022-08-05T21:57:42.578Z,25.07
2022-08-05T22:00:50.913Z,24.93
2022-08-05T22:03:54.093Z,24.96
2022-08-05T22:06:57.329Z,24.92
2022-08-05T22:09:59.746Z,24.76
2022-08-05T22:13:09.341Z,24.54
2022-08-05T22:16:42.043Z,24.37
2022-08-05T22:19:57.487Z,24.25
2022-08-05T22:23:24.949Z,24.26
2022-08-05T22:27:06.881Z,24.19
2022-08-05T22:30:15.028Z,23.99
2022-08-05T22:33:19.521Z,23.83
2022-08-05T22:36:41.701Z,23.68
2022-08-05T22:39:45.456Z,23.62
2022-08-05T22:42:53.093Z,23.67
2022-08-05T22:46:00.771Z,23.58
2022-08-05T22:49:05.747Z,23.33
2022-08-05T22:52:15.466Z,23.21
2022-08-05T22:55:56.559Z,23.29
2022-08-05T22:58:53.183Z,23.39
2022-08-05T23:02:05.610Z,23.20
2022-08-05T23:05:10.062Z,23.30
2022-08-05T23:08:12.470Z,23.02
2022-08-05T23:11:16.547Z,22.99
2022-08-05T23:14:22.712Z,22.78
2022-08-05T23:17:59.611Z,22.62
2022-08-05T23:20:56.444Z,22.56
2022-08-05T23:24:00.646Z,22.69
2022-08-05T23:27:06.005Z,22.63
2022-08-05T23:30:08.710Z,22.61
2022-08-05T23:33:16.029Z,22.59
2022-08-05T23:36:28.334Z,22.44
2022-08-05T23:39:53.807Z,22.39
2022-08-05T23:42:56.972Z,22.30
2022-08-05T23:45:59.196Z,22.29
2022-08-05T23:49:15.696Z,22.15
2022-08-05T23:52:36.100Z,22.26
2022-08-05T23:55:52.191Z,22.53
2022-08-05T23:58:54.770Z,22.62
